sensor_id;sensor_type;location;lat;lon;timestamp;temperature;humidity
8832;DHT22;4452;50.756;4.472;2022-10-22T00:01:12;13.50;99.90
8832;DHT22;4452;50.756;4.472;2022-10-22T00:03:37;13.40;99.90
8832;DHT22;4452;50.756;4.472;2022-10-22T00:06:03;13.40;99.90
8832;DHT22;4452;50.756;4.472;2022-10-22T00:08:29;13.60;99.90
8832;DHT22;4452;50.756;4.472;2022-10-22T00:10:54;13.60;99.90
8832;DHT22;4452;50.756;4.472;2022-10-22T00:13:20;13.60;99.90
8832;DHT22;4452;50.756;4.472;2022-10-22T00:15:46;13.60;99.90
8832;DHT22;4452;50.756;4.472;2022-10-22T00:18:12;13.50;99.90
8832;DHT22;4452;50.756;4.472;2022-10-22T00:20:37;13.50;99.90
8832;DHT22;4452;50.756;4.472;2022-10-22T00:23:03;13.50;99.90
8832;DHT22;4452;50.756;4.472;2022-10-22T00:25:29;13.50;99.90
8832;DHT22;4452;50.756;4.472;2022-10-22T00:27:55;13.60;99.90
8832;DHT22;4452;50.756;4.472;2022-10-22T00:30:20;13.60;99.90
8832;DHT22;4452;50.756;4.472;2022-10-22T00:32:46;13.70;99.90
8832;DHT22;4452;50.756;4.472;2022-10-22T00:35:12;13.80;99.90
8832;DHT22;4452;50.756;4.472;2022-10-22T00:37:37;13.70;99.90
8832;DHT22;4452;50.756;4.472;2022-10-22T00:40:04;13.70;99.90
8832;DHT22;4452;50.756;4.472;2022-10-22T00:42:29;13.60;99.90
8832;DHT22;4452;50.756;4.472;2022-10-22T00:47:39;13.60;99.90
8832;DHT22;4452;50.756;4.472;2022-10-22T00:50:11;13.60;99.90
8832;DHT22;4452;50.756;4.472;2022-10-22T00:52:37;13.60;99.90
8832;DHT22;4452;50.756;4.472;2022-10-22T00:55:04;13.50;99.90
8832;DHT22;4452;50.756;4.472;2022-10-22T00:57:29;13.50;99.90
8832;DHT22;4452;50.756;4.472;2022-10-22T00:59:56;13.50;99.90
8832;DHT22;4452;50.756;4.472;2022-10-22T01:02:22;13.50;99.90
8832;DHT22;4452;50.756;4.472;2022-10-22T01:04:48;13.60;99.90
8832;DHT22;4452;50.756;4.472;2022-10-22T01:07:20;13.50;99.90
8832;DHT22;4452;50.756;4.472;2022-10-22T01:18:28;13.60;99.90
8832;DHT22;4452;50.756;4.472;2022-10-22T01:21:17;13.50;99.90
8832;DHT22;4452;50.756;4.472;2022-10-22T01:23:52;13.60;99.90
8832;DHT22;4452;50.756;4.472;2022-10-22T01:29:17;13.70;99.90
8832;DHT22;4452;50.756;4.472;2022-10-22T01:32:30;13.70;99.90
8832;DHT22;4452;50.756;4.472;2022-10-22T01:34:54;13.80;99.90
8832;DHT22;4452;50.756;4.472;2022-10-22T01:37:23;13.70;99.90
8832;DHT22;4452;50.756;4.472;2022-10-22T01:39:50;13.80;99.90
8832;DHT22;4452;50.756;4.472;2022-10-22T01:42:17;13.80;99.90
8832;DHT22;4452;50.756;4.472;2022-10-22T01:44:43;13.80;99.90
8832;DHT22;4452;50.756;4.472;2022-10-22T01:55:42;13.60;99.90
8832;DHT22;4452;50.756;4.472;2022-10-22T01:58:32;13.60;99.90
8832;DHT22;4452;50.756;4.472;2022-10-22T02:01:05;13.60;99.90
8832;DHT22;4452;50.756;4.472;2022-10-22T02:06:22;13.70;99.90
8832;DHT22;4452;50.756;4.472;2022-10-22T02:08:49;13.60;99.90
8832;DHT22;4452;50.756;4.472;2022-10-22T02:11:15;13.60;99.90
8832;DHT22;4452;50.756;4.472;2022-10-22T02:13:50;13.50;99.90
8832;DHT22;4452;50.756;4.472;2022-10-22T02:16:27;13.60;99.90
8832;DHT22;4452;50.756;4.472;2022-10-22T02:18:57;13.60;99.90
8832;DHT22;4452;50.756;4.472;2022-10-22T02:21:23;13.50;99.90
8832;DHT22;4452;50.756;4.472;2022-10-22T02:23:49;13.50;99.90
8832;DHT22;4452;50.756;4.472;2022-10-22T02:26:31;13.50;99.90
8832;DHT22;4452;50.756;4.472;2022-10-22T02:29:26;13.50;99.90
8832;DHT22;4452;50.756;4.472;2022-10-22T02:31:52;13.40;99.90
8832;DHT22;4452;50.756;4.472;2022-10-22T02:34:24;13.30;99.90
8832;DHT22;4452;50.756;4.472;2022-10-22T02:36:53;13.40;99.90
8832;DHT22;4452;50.756;4.472;2022-10-22T02:39:19;13.40;99.90
8832;DHT22;4452;50.756;4.472;2022-10-22T02:41:46;13.40;99.90
8832;DHT22;4452;50.756;4.472;2022-10-22T02:44:12;13.40;99.90
8832;DHT22;4452;50.756;4.472;2022-10-22T02:46:39;13.40;99.90
8832;DHT22;4452;50.756;4.472;2022-10-22T02:49:05;13.40;99.90
8832;DHT22;4452;50.756;4.472;2022-10-22T02:51:30;13.40;99.90
8832;DHT22;4452;50.756;4.472;2022-10-22T02:53:56;13.30;99.90
8832;DHT22;4452;50.756;4.472;2022-10-22T02:56:22;13.40;99.90
8832;DHT22;4452;50.756;4.472;2022-10-22T02:58:47;13.30;99.90
8832;DHT22;4452;50.756;4.472;2022-10-22T03:01:13;13.40;99.90
8832;DHT22;4452;50.756;4.472;2022-10-22T03:03:39;13.40;99.90
8832;DHT22;4452;50.756;4.472;2022-10-22T03:06:05;13.40;99.90
8832;DHT22;4452;50.756;4.472;2022-10-22T03:08:30;13.50;99.90
8832;DHT22;4452;50.756;4.472;2022-10-22T03:10:56;13.50;99.90
8832;DHT22;4452;50.756;4.472;2022-10-22T03:13:22;13.50;99.90
8832;DHT22;4452;50.756;4.472;2022-10-22T03:15:49;13.50;99.90
8832;DHT22;4452;50.756;4.472;2022-10-22T03:18:15;13.40;99.90
8832;DHT22;4452;50.756;4.472;2022-10-22T03:20:41;13.50;99.90
8832;DHT22;4452;50.756;4.472;2022-10-22T03:23:06;13.50;99.90
8832;DHT22;4452;50.756;4.472;2022-10-22T03:25:32;13.50;99.90
8832;DHT22;4452;50.756;4.472;2022-10-22T03:28:02;13.50;99.90
8832;DHT22;4452;50.756;4.472;2022-10-22T03:30:30;13.50;99.90
8832;DHT22;4452;50.756;4.472;2022-10-22T03:32:56;13.50;99.90
8832;DHT22;4452;50.756;4.472;2022-10-22T03:35:21;13.50;99.90
8832;DHT22;4452;50.756;4.472;2022-10-22T03:37:47;13.50;99.90
8832;DHT22;4452;50.756;4.472;2022-10-22T03:40:13;13.50;99.90
8832;DHT22;4452;50.756;4.472;2022-10-22T03:42:40;13.50;99.90
8832;DHT22;4452;50.756;4.472;2022-10-22T03:45:07;13.50;99.90
8832;DHT22;4452;50.756;4.472;2022-10-22T03:47:33;13.50;99.90
8832;DHT22;4452;50.756;4.472;2022-10-22T03:49:59;13.50;99.90
8832;DHT22;4452;50.756;4.472;2022-10-22T03:52:24;13.60;99.90
8832;DHT22;4452;50.756;4.472;2022-10-22T03:54:50;13.60;99.90
8832;DHT22;4452;50.756;4.472;2022-10-22T03:57:16;13.60;99.90
8832;DHT22;4452;50.756;4.472;2022-10-22T03:59:43;13.70;99.90
8832;DHT22;4452;50.756;4.472;2022-10-22T04:02:10;13.70;99.90
8832;DHT22;4452;50.756;4.472;2022-10-22T04:04:37;13.70;99.90
8832;DHT22;4452;50.756;4.472;2022-10-22T04:07:04;13.70;99.90
8832;DHT22;4452;50.756;4.472;2022-10-22T04:09:32;13.60;99.90
8832;DHT22;4452;50.756;4.472;2022-10-22T04:11:58;13.70;99.90
8832;DHT22;4452;50.756;4.472;2022-10-22T04:14:24;13.60;99.90
8832;DHT22;4452;50.756;4.472;2022-10-22T04:16:50;13.60;99.90
8832;DHT22;4452;50.756;4.472;2022-10-22T04:19:15;13.70;99.90
8832;DHT22;4452;50.756;4.472;2022-10-22T04:21:41;13.80;99.90
8832;DHT22;4452;50.756;4.472;2022-10-22T04:24:07;13.80;99.90
8832;DHT22;4452;50.756;4.472;2022-10-22T04:26:33;13.80;99.90
8832;DHT22;4452;50.756;4.472;2022-10-22T04:28:59;13.80;99.90
8832;DHT22;4452;50.756;4.472;2022-10-22T04:31:25;13.90;99.90
8832;DHT22;4452;50.756;4.472;2022-10-22T04:33:56;14.00;99.90
8832;DHT22;4452;50.756;4.472;2022-10-22T04:36:22;13.90;99.90
8832;DHT22;4452;50.756;4.472;2022-10-22T04:38:53;14.00;99.90
8832;DHT22;4452;50.756;4.472;2022-10-22T04:41:23;13.90;99.90
8832;DHT22;4452;50.756;4.472;2022-10-22T04:43:49;13.90;99.90
8832;DHT22;4452;50.756;4.472;2022-10-22T04:46:16;14.10;99.90
8832;DHT22;4452;50.756;4.472;2022-10-22T04:48:43;14.10;99.90
8832;DHT22;4452;50.756;4.472;2022-10-22T04:51:12;14.10;99.90
8832;DHT22;4452;50.756;4.472;2022-10-22T04:53:37;14.20;99.90
8832;DHT22;4452;50.756;4.472;2022-10-22T04:56:09;14.40;99.90
8832;DHT22;4452;50.756;4.472;2022-10-22T04:58:35;14.40;99.90
8832;DHT22;4452;50.756;4.472;2022-10-22T05:01:15;14.50;99.90
8832;DHT22;4452;50.756;4.472;2022-10-22T05:03:42;14.60;99.90
8832;DHT22;4452;50.756;4.472;2022-10-22T05:06:08;14.60;99.90
8832;DHT22;4452;50.756;4.472;2022-10-22T05:08:34;14.70;99.90
8832;DHT22;4452;50.756;4.472;2022-10-22T05:10:59;14.80;99.90
8832;DHT22;4452;50.756;4.472;2022-10-22T05:13:25;14.70;99.90
8832;DHT22;4452;50.756;4.472;2022-10-22T05:15:51;14.80;99.90
8832;DHT22;4452;50.756;4.472;2022-10-22T05:18:16;14.80;99.90
8832;DHT22;4452;50.756;4.472;2022-10-22T05:20:42;14.80;99.90
8832;DHT22;4452;50.756;4.472;2022-10-22T05:23:08;14.80;99.90
8832;DHT22;4452;50.756;4.472;2022-10-22T05:25:37;14.80;99.90
8832;DHT22;4452;50.756;4.472;2022-10-22T05:28:03;14.80;99.90
8832;DHT22;4452;50.756;4.472;2022-10-22T05:30:29;14.70;99.90
8832;DHT22;4452;50.756;4.472;2022-10-22T05:32:55;14.80;99.90
8832;DHT22;4452;50.756;4.472;2022-10-22T05:35:20;14.80;99.90
8832;DHT22;4452;50.756;4.472;2022-10-22T05:37:46;14.80;99.90
8832;DHT22;4452;50.756;4.472;2022-10-22T05:40:12;14.80;99.90
8832;DHT22;4452;50.756;4.472;2022-10-22T05:42:37;14.80;99.90
8832;DHT22;4452;50.756;4.472;2022-10-22T05:45:03;14.90;99.90
8832;DHT22;4452;50.756;4.472;2022-10-22T05:47:29;14.90;99.90
8832;DHT22;4452;50.756;4.472;2022-10-22T05:49:55;14.90;99.90
8832;DHT22;4452;50.756;4.472;2022-10-22T05:52:24;14.80;99.90
8832;DHT22;4452;50.756;4.472;2022-10-22T05:54:51;14.80;99.90
8832;DHT22;4452;50.756;4.472;2022-10-22T05:57:16;14.90;99.90
8832;DHT22;4452;50.756;4.472;2022-10-22T05:59:42;14.90;99.90
8832;DHT22;4452;50.756;4.472;2022-10-22T06:02:08;14.90;99.90
8832;DHT22;4452;50.756;4.472;2022-10-22T06:04:34;14.90;99.90
8832;DHT22;4452;50.756;4.472;2022-10-22T06:07:00;15.00;99.90
8832;DHT22;4452;50.756;4.472;2022-10-22T06:09:29;14.90;99.90
8832;DHT22;4452;50.756;4.472;2022-10-22T06:11:56;15.00;99.90
8832;DHT22;4452;50.756;4.472;2022-10-22T06:14:22;15.00;99.90
8832;DHT22;4452;50.756;4.472;2022-10-22T06:16:48;15.00;99.90
8832;DHT22;4452;50.756;4.472;2022-10-22T06:19:21;15.00;99.90
8832;DHT22;4452;50.756;4.472;2022-10-22T06:22:08;15.00;99.90
8832;DHT22;4452;50.756;4.472;2022-10-22T06:24:34;15.00;99.90
8832;DHT22;4452;50.756;4.472;2022-10-22T06:27:00;15.00;99.90
8832;DHT22;4452;50.756;4.472;2022-10-22T06:29:25;14.90;99.90
8832;DHT22;4452;50.756;4.472;2022-10-22T06:31:51;14.90;99.90
8832;DHT22;4452;50.756;4.472;2022-10-22T06:34:16;14.90;99.90
8832;DHT22;4452;50.756;4.472;2022-10-22T06:36:43;15.00;99.90
8832;DHT22;4452;50.756;4.472;2022-10-22T06:39:15;15.00;99.90
8832;DHT22;4452;50.756;4.472;2022-10-22T06:41:41;15.00;99.90
8832;DHT22;4452;50.756;4.472;2022-10-22T06:44:06;15.00;99.90
8832;DHT22;4452;50.756;4.472;2022-10-22T06:46:33;15.00;99.90
8832;DHT22;4452;50.756;4.472;2022-10-22T06:49:00;15.00;99.90
8832;DHT22;4452;50.756;4.472;2022-10-22T06:51:27;15.00;99.90
8832;DHT22;4452;50.756;4.472;2022-10-22T06:53:54;15.00;99.90
8832;DHT22;4452;50.756;4.472;2022-10-22T06:56:22;15.00;99.90
8832;DHT22;4452;50.756;4.472;2022-10-22T06:58:49;15.00;99.90
8832;DHT22;4452;50.756;4.472;2022-10-22T07:01:17;15.10;99.90
8832;DHT22;4452;50.756;4.472;2022-10-22T07:03:42;15.00;99.90
8832;DHT22;4452;50.756;4.472;2022-10-22T07:06:10;15.10;99.90
8832;DHT22;4452;50.756;4.472;2022-10-22T07:08:37;15.10;99.90
8832;DHT22;4452;50.756;4.472;2022-10-22T07:11:09;15.10;99.90
8832;DHT22;4452;50.756;4.472;2022-10-22T07:13:35;15.10;99.90
8832;DHT22;4452;50.756;4.472;2022-10-22T07:16:02;15.10;99.90
8832;DHT22;4452;50.756;4.472;2022-10-22T07:18:29;15.10;99.90
8832;DHT22;4452;50.756;4.472;2022-10-22T07:20:55;15.20;99.90
8832;DHT22;4452;50.756;4.472;2022-10-22T07:23:21;15.20;99.90
8832;DHT22;4452;50.756;4.472;2022-10-22T07:25:46;15.20;99.90
8832;DHT22;4452;50.756;4.472;2022-10-22T07:28:12;15.30;99.90
8832;DHT22;4452;50.756;4.472;2022-10-22T07:30:38;15.30;99.90
8832;DHT22;4452;50.756;4.472;2022-10-22T07:33:04;15.30;99.90
8832;DHT22;4452;50.756;4.472;2022-10-22T07:35:30;15.30;99.90
8832;DHT22;4452;50.756;4.472;2022-10-22T07:37:56;15.30;99.90
8832;DHT22;4452;50.756;4.472;2022-10-22T07:40:22;15.40;99.90
8832;DHT22;4452;50.756;4.472;2022-10-22T07:42:47;15.40;99.90
8832;DHT22;4452;50.756;4.472;2022-10-22T07:45:13;15.40;99.90
8832;DHT22;4452;50.756;4.472;2022-10-22T07:47:39;15.40;99.90
8832;DHT22;4452;50.756;4.472;2022-10-22T07:50:05;15.50;99.90
8832;DHT22;4452;50.756;4.472;2022-10-22T07:52:32;15.40;99.90
8832;DHT22;4452;50.756;4.472;2022-10-22T07:54:58;15.50;99.90
8832;DHT22;4452;50.756;4.472;2022-10-22T07:57:23;15.50;99.90
8832;DHT22;4452;50.756;4.472;2022-10-22T07:59:49;15.50;99.90
8832;DHT22;4452;50.756;4.472;2022-10-22T08:02:15;15.60;99.90
8832;DHT22;4452;50.756;4.472;2022-10-22T08:04:40;15.60;99.90
8832;DHT22;4452;50.756;4.472;2022-10-22T08:07:06;15.60;99.90
8832;DHT22;4452;50.756;4.472;2022-10-22T08:09:32;15.70;99.90
8832;DHT22;4452;50.756;4.472;2022-10-22T08:11:57;15.70;99.90
8832;DHT22;4452;50.756;4.472;2022-10-22T08:14:23;15.70;99.90
8832;DHT22;4452;50.756;4.472;2022-10-22T08:16:48;15.80;99.90
8832;DHT22;4452;50.756;4.472;2022-10-22T08:19:14;15.90;99.90
8832;DHT22;4452;50.756;4.472;2022-10-22T08:21:45;15.90;99.90
8832;DHT22;4452;50.756;4.472;2022-10-22T08:24:12;15.90;99.90
8832;DHT22;4452;50.756;4.472;2022-10-22T08:26:38;16.00;99.90
8832;DHT22;4452;50.756;4.472;2022-10-22T08:29:04;16.00;99.90
8832;DHT22;4452;50.756;4.472;2022-10-22T08:31:29;15.90;99.90
8832;DHT22;4452;50.756;4.472;2022-10-22T08:33:55;15.90;99.90
8832;DHT22;4452;50.756;4.472;2022-10-22T08:36:21;15.90;99.90
8832;DHT22;4452;50.756;4.472;2022-10-22T08:38:46;15.90;99.90
8832;DHT22;4452;50.756;4.472;2022-10-22T08:41:16;16.00;99.90
8832;DHT22;4452;50.756;4.472;2022-10-22T08:46:50;16.00;99.90
8832;DHT22;4452;50.756;4.472;2022-10-22T08:49:25;16.00;99.90
8832;DHT22;4452;50.756;4.472;2022-10-22T08:51:51;16.10;99.90
8832;DHT22;4452;50.756;4.472;2022-10-22T08:59:44;16.00;99.90
8832;DHT22;4452;50.756;4.472;2022-10-22T09:08:16;16.10;99.90
8832;DHT22;4452;50.756;4.472;2022-10-22T09:11:36;16.20;99.90
8832;DHT22;4452;50.756;4.472;2022-10-22T09:13:36;16.30;99.90
8832;DHT22;4452;50.756;4.472;2022-10-22T09:16:14;16.20;99.90
8832;DHT22;4452;50.756;4.472;2022-10-22T09:24:26;16.30;99.90
8832;DHT22;4452;50.756;4.472;2022-10-22T09:26:52;16.30;99.90
8832;DHT22;4452;50.756;4.472;2022-10-22T09:29:23;16.40;99.90
8832;DHT22;4452;50.756;4.472;2022-10-22T09:31:53;16.40;99.90
8832;DHT22;4452;50.756;4.472;2022-10-22T09:34:20;16.50;99.90
8832;DHT22;4452;50.756;4.472;2022-10-22T09:36:45;16.60;99.90
8832;DHT22;4452;50.756;4.472;2022-10-22T09:39:26;16.70;99.90
8832;DHT22;4452;50.756;4.472;2022-10-22T09:41:51;16.60;99.90
8832;DHT22;4452;50.756;4.472;2022-10-22T09:44:18;16.60;99.90
8832;DHT22;4452;50.756;4.472;2022-10-22T09:46:43;16.60;99.90
8832;DHT22;4452;50.756;4.472;2022-10-22T09:49:36;16.60;99.90
8832;DHT22;4452;50.756;4.472;2022-10-22T09:52:02;16.60;99.90
8832;DHT22;4452;50.756;4.472;2022-10-22T09:54:41;16.60;99.90
8832;DHT22;4452;50.756;4.472;2022-10-22T09:57:16;16.70;99.90
8832;DHT22;4452;50.756;4.472;2022-10-22T09:59:44;16.70;99.90
8832;DHT22;4452;50.756;4.472;2022-10-22T10:02:15;16.60;99.90
8832;DHT22;4452;50.756;4.472;2022-10-22T10:04:48;16.60;99.90
8832;DHT22;4452;50.756;4.472;2022-10-22T10:07:18;16.50;99.90
8832;DHT22;4452;50.756;4.472;2022-10-22T10:09:48;16.50;99.90
8832;DHT22;4452;50.756;4.472;2022-10-22T10:15:12;16.40;99.90
8832;DHT22;4452;50.756;4.472;2022-10-22T10:25:47;16.40;99.90
8832;DHT22;4452;50.756;4.472;2022-10-22T10:31:31;16.50;99.90
8832;DHT22;4452;50.756;4.472;2022-10-22T10:36:53;17.10;99.90
8832;DHT22;4452;50.756;4.472;2022-10-22T10:42:56;17.90;99.90
8832;DHT22;4452;50.756;4.472;2022-10-22T10:45:57;17.80;99.90
8832;DHT22;4452;50.756;4.472;2022-10-22T10:48:49;17.40;99.90
8832;DHT22;4452;50.756;4.472;2022-10-22T11:10:38;18.40;99.90
8832;DHT22;4452;50.756;4.472;2022-10-22T11:15:39;18.50;99.90
8832;DHT22;4452;50.756;4.472;2022-10-22T11:18:23;18.40;99.90
8832;DHT22;4452;50.756;4.472;2022-10-22T11:23:34;18.50;99.90
8832;DHT22;4452;50.756;4.472;2022-10-22T11:26:03;18.70;99.90
8832;DHT22;4452;50.756;4.472;2022-10-22T11:28:39;18.70;99.90
8832;DHT22;4452;50.756;4.472;2022-10-22T11:31:14;18.80;99.90
8832;DHT22;4452;50.756;4.472;2022-10-22T11:34:04;19.20;99.90
8832;DHT22;4452;50.756;4.472;2022-10-22T11:36:33;19.10;99.90
8832;DHT22;4452;50.756;4.472;2022-10-22T11:39:02;19.20;99.90
8832;DHT22;4452;50.756;4.472;2022-10-22T11:41:30;19.10;99.90
8832;DHT22;4452;50.756;4.472;2022-10-22T11:46:45;18.70;99.90
8832;DHT22;4452;50.756;4.472;2022-10-22T11:49:22;18.40;99.90
8832;DHT22;4452;50.756;4.472;2022-10-22T11:51:48;18.30;99.90
8832;DHT22;4452;50.756;4.472;2022-10-22T11:59:51;18.50;99.90
8832;DHT22;4452;50.756;4.472;2022-10-22T12:02:41;18.70;99.90
8832;DHT22;4452;50.756;4.472;2022-10-22T12:10:47;19.10;99.90
8832;DHT22;4452;50.756;4.472;2022-10-22T12:13:23;19.00;99.90
8832;DHT22;4452;50.756;4.472;2022-10-22T12:15:52;19.00;99.90
8832;DHT22;4452;50.756;4.472;2022-10-22T12:18:23;19.00;99.90
8832;DHT22;4452;50.756;4.472;2022-10-22T12:20:51;19.00;99.90
8832;DHT22;4452;50.756;4.472;2022-10-22T12:23:17;19.00;99.90
8832;DHT22;4452;50.756;4.472;2022-10-22T12:25:43;19.10;99.90
8832;DHT22;4452;50.756;4.472;2022-10-22T12:28:11;19.50;99.90
8832;DHT22;4452;50.756;4.472;2022-10-22T12:30:37;19.60;99.90
8832;DHT22;4452;50.756;4.472;2022-10-22T12:33:05;19.90;99.90
8832;DHT22;4452;50.756;4.472;2022-10-22T12:35:34;19.60;99.90
8832;DHT22;4452;50.756;4.472;2022-10-22T12:38:15;19.70;99.90
8832;DHT22;4452;50.756;4.472;2022-10-22T12:40:41;19.60;99.90
8832;DHT22;4452;50.756;4.472;2022-10-22T12:43:12;19.80;99.90
8832;DHT22;4452;50.756;4.472;2022-10-22T12:45:39;19.60;99.90
8832;DHT22;4452;50.756;4.472;2022-10-22T12:48:29;19.70;99.90
8832;DHT22;4452;50.756;4.472;2022-10-22T12:51:00;19.20;99.90
8832;DHT22;4452;50.756;4.472;2022-10-22T12:55:54;18.50;99.90
8832;DHT22;4452;50.756;4.472;2022-10-22T12:58:30;18.30;99.90
8832;DHT22;4452;50.756;4.472;2022-10-22T13:00:59;18.30;99.90
8832;DHT22;4452;50.756;4.472;2022-10-22T13:03:35;18.40;99.90
8832;DHT22;4452;50.756;4.472;2022-10-22T13:11:48;18.40;99.90
8832;DHT22;4452;50.756;4.472;2022-10-22T13:17:10;19.40;99.90
8832;DHT22;4452;50.756;4.472;2022-10-22T13:27:43;21.30;99.90
8832;DHT22;4452;50.756;4.472;2022-10-22T13:30:17;20.50;99.90
8832;DHT22;4452;50.756;4.472;2022-10-22T13:32:52;20.40;99.90
8832;DHT22;4452;50.756;4.472;2022-10-22T13:35:22;20.20;99.90
8832;DHT22;4452;50.756;4.472;2022-10-22T13:37:48;19.80;99.90
8832;DHT22;4452;50.756;4.472;2022-10-22T13:40:14;19.40;99.90
8832;DHT22;4452;50.756;4.472;2022-10-22T13:42:40;19.30;99.90
8832;DHT22;4452;50.756;4.472;2022-10-22T13:45:06;19.70;99.90
8832;DHT22;4452;50.756;4.472;2022-10-22T13:47:32;20.30;99.90
8832;DHT22;4452;50.756;4.472;2022-10-22T13:49:59;20.60;99.90
8832;DHT22;4452;50.756;4.472;2022-10-22T13:52:34;20.70;99.90
8832;DHT22;4452;50.756;4.472;2022-10-22T13:55:01;21.20;99.90
8832;DHT22;4452;50.756;4.472;2022-10-22T13:57:27;21.20;99.90
8832;DHT22;4452;50.756;4.472;2022-10-22T13:59:53;20.90;99.90
8832;DHT22;4452;50.756;4.472;2022-10-22T14:02:19;20.60;99.90
8832;DHT22;4452;50.756;4.472;2022-10-22T14:04:46;20.00;99.90
8832;DHT22;4452;50.756;4.472;2022-10-22T14:07:13;19.50;99.90
8832;DHT22;4452;50.756;4.472;2022-10-22T14:09:40;19.10;99.90
8832;DHT22;4452;50.756;4.472;2022-10-22T14:12:14;18.90;99.90
8832;DHT22;4452;50.756;4.472;2022-10-22T14:14:40;18.90;99.90
8832;DHT22;4452;50.756;4.472;2022-10-22T14:17:12;19.10;99.90
8832;DHT22;4452;50.756;4.472;2022-10-22T14:19:42;19.10;99.90
8832;DHT22;4452;50.756;4.472;2022-10-22T14:22:13;19.60;99.90
8832;DHT22;4452;50.756;4.472;2022-10-22T14:24:39;19.90;99.90
8832;DHT22;4452;50.756;4.472;2022-10-22T14:27:04;19.80;99.90
8832;DHT22;4452;50.756;4.472;2022-10-22T14:29:30;19.50;99.90
8832;DHT22;4452;50.756;4.472;2022-10-22T14:31:56;19.40;99.90
8832;DHT22;4452;50.756;4.472;2022-10-22T14:34:21;19.40;99.90
8832;DHT22;4452;50.756;4.472;2022-10-22T14:36:47;19.20;99.90
8832;DHT22;4452;50.756;4.472;2022-10-22T14:39:12;19.30;99.90
8832;DHT22;4452;50.756;4.472;2022-10-22T14:41:38;19.40;99.90
8832;DHT22;4452;50.756;4.472;2022-10-22T14:44:07;19.60;99.90
8832;DHT22;4452;50.756;4.472;2022-10-22T14:46:39;19.50;99.90
8832;DHT22;4452;50.756;4.472;2022-10-22T14:49:08;19.40;99.90
8832;DHT22;4452;50.756;4.472;2022-10-22T14:51:39;19.10;99.90
8832;DHT22;4452;50.756;4.472;2022-10-22T14:54:06;19.00;99.90
8832;DHT22;4452;50.756;4.472;2022-10-22T14:56:33;19.30;99.90
8832;DHT22;4452;50.756;4.472;2022-10-22T14:58:59;19.50;99.90
8832;DHT22;4452;50.756;4.472;2022-10-22T15:01:24;19.40;99.90
8832;DHT22;4452;50.756;4.472;2022-10-22T15:03:50;19.00;99.90
8832;DHT22;4452;50.756;4.472;2022-10-22T15:06:15;18.90;99.90
8832;DHT22;4452;50.756;4.472;2022-10-22T15:08:43;18.90;99.90
8832;DHT22;4452;50.756;4.472;2022-10-22T15:11:12;19.00;99.90
8832;DHT22;4452;50.756;4.472;2022-10-22T15:13:38;19.20;99.90
8832;DHT22;4452;50.756;4.472;2022-10-22T15:16:07;19.20;99.90
8832;DHT22;4452;50.756;4.472;2022-10-22T15:18:33;19.20;99.90
8832;DHT22;4452;50.756;4.472;2022-10-22T15:21:06;19.20;99.90
8832;DHT22;4452;50.756;4.472;2022-10-22T15:23:32;18.90;99.90
8832;DHT22;4452;50.756;4.472;2022-10-22T15:25:58;18.80;99.90
8832;DHT22;4452;50.756;4.472;2022-10-22T15:28:24;19.00;99.90
8832;DHT22;4452;50.756;4.472;2022-10-22T15:30:57;19.40;99.90
8832;DHT22;4452;50.756;4.472;2022-10-22T15:33:23;19.60;99.90
8832;DHT22;4452;50.756;4.472;2022-10-22T15:35:49;19.70;99.90
8832;DHT22;4452;50.756;4.472;2022-10-22T15:38:16;19.70;99.90
8832;DHT22;4452;50.756;4.472;2022-10-22T15:40:41;19.60;99.90
8832;DHT22;4452;50.756;4.472;2022-10-22T15:43:07;19.60;99.90
8832;DHT22;4452;50.756;4.472;2022-10-22T15:45:33;19.50;99.90
8832;DHT22;4452;50.756;4.472;2022-10-22T15:47:59;19.20;99.90
8832;DHT22;4452;50.756;4.472;2022-10-22T15:50:25;19.50;99.90
8832;DHT22;4452;50.756;4.472;2022-10-22T15:52:51;19.40;99.90
8832;DHT22;4452;50.756;4.472;2022-10-22T15:55:17;19.50;99.90
8832;DHT22;4452;50.756;4.472;2022-10-22T15:57:43;19.60;99.90
8832;DHT22;4452;50.756;4.472;2022-10-22T16:00:09;19.60;99.90
8832;DHT22;4452;50.756;4.472;2022-10-22T16:02:36;19.40;99.90
8832;DHT22;4452;50.756;4.472;2022-10-22T16:05:01;19.30;99.90
8832;DHT22;4452;50.756;4.472;2022-10-22T16:07:28;19.10;99.90
8832;DHT22;4452;50.756;4.472;2022-10-22T16:09:55;19.00;99.90
8832;DHT22;4452;50.756;4.472;2022-10-22T16:12:21;18.80;99.90
8832;DHT22;4452;50.756;4.472;2022-10-22T16:14:49;18.60;99.90
8832;DHT22;4452;50.756;4.472;2022-10-22T16:17:15;18.10;99.90
8832;DHT22;4452;50.756;4.472;2022-10-22T16:19:41;18.00;99.90
8832;DHT22;4452;50.756;4.472;2022-10-22T16:22:08;17.70;99.90
8832;DHT22;4452;50.756;4.472;2022-10-22T16:24:36;17.60;99.90
8832;DHT22;4452;50.756;4.472;2022-10-22T16:27:05;17.60;99.90
8832;DHT22;4452;50.756;4.472;2022-10-22T16:29:31;17.60;99.90
8832;DHT22;4452;50.756;4.472;2022-10-22T16:31:57;17.50;99.90
8832;DHT22;4452;50.756;4.472;2022-10-22T16:34:25;17.50;99.90
8832;DHT22;4452;50.756;4.472;2022-10-22T16:36:51;17.50;99.90
8832;DHT22;4452;50.756;4.472;2022-10-22T16:39:18;17.40;99.90
8832;DHT22;4452;50.756;4.472;2022-10-22T16:41:43;17.40;99.90
8832;DHT22;4452;50.756;4.472;2022-10-22T16:44:09;17.40;99.90
8832;DHT22;4452;50.756;4.472;2022-10-22T16:46:35;17.30;99.90
8832;DHT22;4452;50.756;4.472;2022-10-22T16:49:04;17.30;99.90
8832;DHT22;4452;50.756;4.472;2022-10-22T16:51:31;17.30;99.90
8832;DHT22;4452;50.756;4.472;2022-10-22T16:53:57;17.30;99.90
8832;DHT22;4452;50.756;4.472;2022-10-22T16:56:24;17.30;99.90
8832;DHT22;4452;50.756;4.472;2022-10-22T16:58:51;17.20;99.90
8832;DHT22;4452;50.756;4.472;2022-10-22T17:01:20;17.30;99.90
8832;DHT22;4452;50.756;4.472;2022-10-22T17:03:49;17.20;99.90
8832;DHT22;4452;50.756;4.472;2022-10-22T17:06:17;17.10;99.90
8832;DHT22;4452;50.756;4.472;2022-10-22T17:08:45;17.10;99.90
8832;DHT22;4452;50.756;4.472;2022-10-22T17:11:15;17.00;99.90
8832;DHT22;4452;50.756;4.472;2022-10-22T17:13:46;16.80;99.90
8832;DHT22;4452;50.756;4.472;2022-10-22T17:16:15;16.60;99.90
8832;DHT22;4452;50.756;4.472;2022-10-22T17:18:42;16.50;99.90
8832;DHT22;4452;50.756;4.472;2022-10-22T17:21:10;16.50;99.90
8832;DHT22;4452;50.756;4.472;2022-10-22T17:23:36;16.50;99.90
8832;DHT22;4452;50.756;4.472;2022-10-22T17:26:05;16.40;99.90
8832;DHT22;4452;50.756;4.472;2022-10-22T17:28:32;16.30;99.90
8832;DHT22;4452;50.756;4.472;2022-10-22T17:31:19;16.20;99.90
8832;DHT22;4452;50.756;4.472;2022-10-22T17:33:45;16.00;99.90
8832;DHT22;4452;50.756;4.472;2022-10-22T17:36:11;15.90;99.90
8832;DHT22;4452;50.756;4.472;2022-10-22T17:38:41;15.80;99.90
8832;DHT22;4452;50.756;4.472;2022-10-22T17:41:09;15.80;99.90
8832;DHT22;4452;50.756;4.472;2022-10-22T17:43:39;15.80;99.90
8832;DHT22;4452;50.756;4.472;2022-10-22T17:46:09;15.80;99.90
8832;DHT22;4452;50.756;4.472;2022-10-22T17:48:38;15.80;99.90
8832;DHT22;4452;50.756;4.472;2022-10-22T17:51:09;15.80;99.90
8832;DHT22;4452;50.756;4.472;2022-10-22T17:53:38;15.80;99.90
8832;DHT22;4452;50.756;4.472;2022-10-22T17:56:04;15.80;99.90
8832;DHT22;4452;50.756;4.472;2022-10-22T17:58:35;15.80;99.90
8832;DHT22;4452;50.756;4.472;2022-10-22T18:01:01;15.80;99.90
8832;DHT22;4452;50.756;4.472;2022-10-22T18:03:27;15.70;99.90
8832;DHT22;4452;50.756;4.472;2022-10-22T18:05:53;15.70;99.90
8832;DHT22;4452;50.756;4.472;2022-10-22T18:08:20;15.60;99.90
8832;DHT22;4452;50.756;4.472;2022-10-22T18:10:48;15.50;99.90
8832;DHT22;4452;50.756;4.472;2022-10-22T18:13:14;15.50;99.90